createdAt,value
2019-02-22T00:00:13.222Z,99019.02
2019-02-22T00:01:38.794Z,99023.36
2019-02-22T00:02:47.005Z,99018.45
2019-02-22T00:03:55.091Z,99016.38
2019-02-22T00:05:03.420Z,99012.99
2019-02-22T00:06:12.012Z,99023.55
2019-02-22T00:07:20.594Z,99026.20
2019-02-22T00:08:28.560Z,99015.26
2019-02-22T00:09:36.798Z,99020.34
2019-02-22T00:10:45.182Z,99023.45
2019-02-22T00:11:53.754Z,99021.66
2019-02-22T00:13:01.767Z,99011.00
2019-02-22T00:14:09.865Z,99019.59
2019-02-22T00:15:17.961Z,99016.58
2019-02-22T00:16:26.192Z,99010.45
2019-02-22T00:17:34.707Z,99015.80
2019-02-22T00:18:43.092Z,99008.28
2019-02-22T00:19:51.286Z,99011.84
2019-02-22T00:20:59.330Z,99016.37
2019-02-22T00:22:07.732Z,99010.14
2019-02-22T00:23:15.960Z,99010.61
2019-02-22T00:24:24.137Z,99016.74
2019-02-22T00:25:32.114Z,99011.39
2019-02-22T00:26:40.048Z,99009.98
2019-02-22T00:27:48.093Z,99007.34
2019-02-22T00:28:56.301Z,99009.03
2019-02-22T00:30:04.811Z,99005.83
2019-02-22T00:31:13.225Z,99007.14
2019-02-22T00:32:21.930Z,98996.58
2019-02-22T00:33:29.949Z,98998.38
2019-02-22T00:34:38.286Z,98995.75
2019-02-22T00:35:46.379Z,98992.26
2019-02-22T00:36:54.438Z,98993.11
2019-02-22T00:38:02.557Z,98990.09
2019-02-22T00:39:10.996Z,98992.26
2019-02-22T00:40:19.534Z,98986.13
2019-02-22T00:41:27.543Z,98986.03
2019-02-22T00:42:35.868Z,98985.66
2019-02-22T00:43:44.206Z,98979.43
2019-02-22T00:44:52.758Z,98984.81
2019-02-22T00:46:01.294Z,98980.47
2019-02-22T00:47:09.653Z,98978.68
2019-02-22T00:48:17.867Z,98981.80
2019-02-22T00:49:26.167Z,98979.25
2019-02-22T00:50:34.179Z,98982.64
2019-02-22T00:51:42.592Z,98976.98
2019-02-22T00:52:51.255Z,98980.95
2019-02-22T00:53:59.617Z,98973.97
2019-02-22T00:55:08.466Z,98980.84
2019-02-22T00:56:16.754Z,98973.40
2019-02-22T00:57:25.134Z,98978.11
2019-02-22T00:58:33.529Z,98978.58
2019-02-22T00:59:42.600Z,98974.52
2019-02-22T01:00:51.229Z,98976.69
2019-02-22T01:02:00.153Z,98976.79
2019-02-22T01:03:08.829Z,98978.58
2019-02-22T01:04:17.713Z,98974.63
2019-02-22T01:05:26.126Z,98978.02
2019-02-22T01:06:34.521Z,98974.52
2019-02-22T01:07:43.113Z,98975.20
2019-02-22T01:08:51.699Z,98976.05
2019-02-22T01:10:00.425Z,98974.25
2019-02-22T01:11:08.886Z,98976.90
2019-02-22T01:12:17.366Z,98974.53
2019-02-22T01:13:25.978Z,98979.34
2019-02-22T01:14:34.712Z,98973.89
2019-02-22T01:15:43.266Z,98975.96
2019-02-22T01:16:51.909Z,98976.34
2019-02-22T01:18:00.183Z,98972.37
2019-02-22T01:19:08.890Z,98973.22
2019-02-22T01:20:17.141Z,98972.58
2019-02-22T01:21:25.443Z,98975.22
2019-02-22T01:22:33.828Z,98976.81
2019-02-22T01:23:42.685Z,98966.61
2019-02-22T01:24:50.940Z,98968.72
2019-02-22T01:25:59.428Z,98972.10
2019-02-22T01:27:08.090Z,98969.16
2019-02-22T01:28:16.899Z,98966.08
2019-02-22T01:29:25.213Z,98964.45
2019-02-22T01:30:34.618Z,98961.33
2019-02-22T01:31:43.102Z,98966.45
2019-02-22T01:32:51.622Z,98964.28
2019-02-22T01:34:00.262Z,98963.33
2019-02-22T01:35:09.200Z,98961.33
2019-02-22T01:36:18.370Z,98961.44
2019-02-22T01:37:26.913Z,98960.48
2019-02-22T01:38:35.660Z,98959.84
2019-02-22T01:39:44.429Z,98957.36
2019-02-22T01:40:53.261Z,98956.89
2019-02-22T01:42:02.227Z,98953.03
2019-02-22T01:43:10.811Z,98953.88
2019-02-22T01:44:22.293Z,98952.28
2019-02-22T01:45:30.698Z,98950.86
2019-02-22T01:46:39.266Z,98950.39
2019-02-22T01:47:47.553Z,98955.94
2019-02-22T01:48:55.574Z,98953.23
2019-02-22T01:50:05.380Z,98951.23
2019-02-22T01:51:13.985Z,98949.64
2019-02-22T01:52:22.716Z,98954.35
2019-02-22T01:53:30.753Z,98956.14
2019-02-22T01:54:40.021Z,98950.96
2019-02-22T01:55:48.397Z,98954.92
2019-02-22T01:56:56.589Z,98951.06
2019-02-22T01:58:04.825Z,98950.86
2019-02-22T01:59:13.337Z,98949.06
2019-02-22T02:00:21.965Z,98953.41
2019-02-22T02:01:30.151Z,98955.30
2019-02-22T02:02:38.689Z,98951.71
2019-02-22T02:03:46.746Z,98950.29
2019-02-22T02:04:54.852Z,98950.49
2019-02-22T02:06:03.682Z,98953.23
2019-02-22T02:07:12.362Z,98947.58
2019-02-22T02:08:21.146Z,98946.26
2019-02-22T02:09:29.581Z,98948.90
2019-02-22T02:10:37.835Z,98943.78
2019-02-22T02:11:46.035Z,98951.80
2019-02-22T02:12:54.595Z,98948.80
2019-02-22T02:14:03.018Z,98950.48
2019-02-22T02:15:11.471Z,98944.63
2019-02-22T02:16:20.184Z,98944.16
2019-02-22T02:17:28.457Z,98943.78
2019-02-22T02:18:37.270Z,98946.42
2019-02-22T02:19:45.600Z,98945.48
2019-02-22T02:20:54.431Z,98945.69
2019-02-22T02:22:03.084Z,98947.00
2019-02-22T02:23:11.436Z,98944.63
2019-02-22T02:24:20.344Z,98945.58
2019-02-22T02:25:28.672Z,98944.27
2019-02-22T02:26:37.094Z,98942.47
2019-02-22T02:27:45.278Z,98943.14
2019-02-22T02:28:53.761Z,98944.16
2019-02-22T02:30:03.886Z,98943.52
2019-02-22T02:31:12.332Z,98943.41
2019-02-22T02:32:20.811Z,98942.46
2019-02-22T02:33:29.507Z,98944.05
2019-02-22T02:34:38.025Z,98947.00
2019-02-22T02:35:46.413Z,98940.97
2019-02-22T02:36:55.234Z,98939.72
2019-02-22T02:38:03.855Z,98939.72
2019-02-22T02:39:12.611Z,98946.70
2019-02-22T02:40:22.000Z,98946.63
2019-02-22T02:41:31.114Z,98947.00
2019-02-22T02:42:39.612Z,98945.37
2019-02-22T02:43:48.021Z,98945.67
2019-02-22T02:44:57.182Z,98945.56
2019-02-22T02:46:05.998Z,98949.06
2019-02-22T02:47:14.905Z,98945.77
2019-02-22T02:48:23.624Z,98946.62
2019-02-22T02:49:32.399Z,98943.58
2019-02-22T02:50:40.546Z,98940.56
2019-02-22T02:51:49.908Z,98948.96
2019-02-22T02:52:58.796Z,98942.45
2019-02-22T02:54:07.361Z,98940.39
2019-02-22T02:55:29.829Z,98942.45
2019-02-22T02:56:38.636Z,98944.25
2019-02-22T02:57:48.001Z,98939.17
2019-02-22T02:58:56.249Z,98939.65
2019-02-22T03:00:07.941Z,98941.41
2019-02-22T03:01:16.516Z,98942.84
2019-02-22T03:02:25.894Z,98946.70
2019-02-22T03:03:33.874Z,98945.30
2019-02-22T03:04:42.395Z,98938.50
2019-02-22T03:05:53.633Z,98947.17
2019-02-22T03:07:03.458Z,98944.05
2019-02-22T03:08:12.499Z,98946.80
2019-02-22T03:09:21.169Z,98944.05
2019-02-22T03:10:31.460Z,98944.05
2019-02-22T03:11:39.538Z,98948.80
2019-02-22T03:12:48.269Z,98950.86
2019-02-22T03:13:56.791Z,98949.06
2019-02-22T03:15:06.587Z,98951.81
2019-02-22T03:16:15.288Z,98955.09
2019-02-22T03:17:24.000Z,98951.91
2019-02-22T03:18:32.088Z,98953.50
2019-02-22T03:19:40.491Z,98955.56
2019-02-22T03:20:48.846Z,98954.14
2019-02-22T03:21:56.782Z,98955.86
2019-02-22T03:23:05.350Z,98955.09
2019-02-22T03:24:13.531Z,98955.29
2019-02-22T03:25:21.906Z,98957.94
2019-02-22T03:26:30.252Z,98951.33
2019-02-22T03:27:38.441Z,98951.70
2019-02-22T03:28:46.532Z,98959.90
2019-02-22T03:29:54.955Z,98951.69
2019-02-22T03:31:03.562Z,98956.98
2019-02-22T03:32:11.759Z,98964.33
2019-02-22T03:33:19.852Z,98965.58
2019-02-22T03:34:27.942Z,98967.17
2019-02-22T03:35:36.249Z,98961.67
2019-02-22T03:36:44.655Z,98972.82
2019-02-22T03:37:52.944Z,98968.17
2019-02-22T03:39:00.974Z,98968.09
2019-02-22T03:40:10.313Z,98969.80
2019-02-22T03:41:18.229Z,98971.75
2019-02-22T03:42:26.571Z,98974.77
2019-02-22T03:43:34.623Z,98976.39
2019-02-22T03:44:43.045Z,98978.82
2019-02-22T03:45:51.034Z,98979.49
2019-02-22T03:46:59.230Z,98981.59
2019-02-22T03:48:07.790Z,98984.02
2019-02-22T03:49:16.696Z,98974.69
2019-02-22T03:50:25.000Z,98980.25
2019-02-22T03:51:33.091Z,98980.03
2019-02-22T03:52:42.925Z,98981.66
2019-02-22T03:53:53.755Z,98979.28
2019-02-22T03:55:01.738Z,98983.14
2019-02-22T03:56:10.403Z,98987.48
2019-02-22T03:57:18.659Z,98989.58
2019-02-22T03:58:26.676Z,98996.34
2019-02-22T03:59:34.999Z,98992.75
2019-02-22T04:00:43.182Z,98991.34
2019-02-22T04:01:51.465Z,98998.70
2019-02-22T04:02:59.897Z,98996.91
2019-02-22T04:04:08.316Z,98991.50
2019-02-22T04:05:16.588Z,98992.83
2019-02-22T04:06:25.314Z,98988.75
2019-02-22T04:07:33.372Z,98996.62
2019-02-22T04:08:41.803Z,98994.82
2019-02-22T04:09:50.125Z,98997.36
2019-02-22T04:10:58.226Z,98995.92
2019-02-22T04:12:06.223Z,98994.97
2019-02-22T04:13:14.511Z,98991.48
2019-02-22T04:14:22.707Z,99003.20
2019-02-22T04:15:30.926Z,99008.03
2019-02-22T04:16:39.207Z,99007.44
2019-02-22T04:17:47.348Z,99011.78
2019-02-22T04:18:55.495Z,99014.80
2019-02-22T04:20:04.518Z,99017.34
2019-02-22T04:21:12.916Z,99016.89
2019-02-22T04:22:21.070Z,99015.64
2019-02-22T04:23:29.106Z,99024.38
2019-02-22T04:24:37.707Z,99022.77
2019-02-22T04:25:45.815Z,99017.94
2019-02-22T04:26:54.376Z,99022.50
2019-02-22T04:28:02.962Z,99030.44
2019-02-22T04:29:11.419Z,99028.73
2019-02-22T04:30:20.251Z,99027.89
2019-02-22T04:31:28.864Z,99030.06
2019-02-22T04:32:37.173Z,99033.73
2019-02-22T04:33:45.415Z,99035.06
2019-02-22T04:34:53.660Z,99032.89
2019-02-22T04:36:02.317Z,99030.64
2019-02-22T04:37:10.930Z,99038.59
2019-02-22T04:38:19.344Z,99038.28
2019-02-22T04:39:27.453Z,99049.72
2019-02-22T04:40:35.803Z,99059.08
2019-02-22T04:41:44.710Z,99053.05
2019-02-22T04:42:54.483Z,99060.14
2019-02-22T04:44:03.078Z,99054.00
2019-02-22T04:45:11.388Z,99059.29
2019-02-22T04:46:19.568Z,99065.13
2019-02-22T04:47:27.749Z,99067.88
2019-02-22T04:48:36.160Z,99058.73
2019-02-22T04:49:44.551Z,99065.63
2019-02-22T04:50:53.501Z,99082.75
2019-02-22T04:52:01.671Z,99073.40
2019-02-22T04:53:09.958Z,99090.39
2019-02-22T04:54:18.110Z,99088.80
2019-02-22T04:55:29.197Z,99094.63
2019-02-22T04:56:36.546Z,99098.88
2019-02-22T04:57:44.777Z,99119.28
2019-02-22T04:58:53.151Z,99125.10
2019-02-22T05:00:01.236Z,99129.74
2019-02-22T05:01:09.072Z,99127.67
2019-02-22T05:02:17.398Z,99137.83
2019-02-22T05:03:25.683Z,99137.81
2019-02-22T05:04:33.855Z,99137.83
2019-02-22T05:05:42.123Z,99146.02
2019-02-22T05:06:50.683Z,99143.62
2019-02-22T05:07:58.813Z,99149.27
2019-02-22T05:09:07.481Z,99164.94
2019-02-22T05:10:15.550Z,99156.70
2019-02-22T05:11:24.671Z,99151.23
2019-02-22T05:12:32.812Z,99168.84
2019-02-22T05:13:41.513Z,99172.30
2019-02-22T05:14:49.534Z,99180.47
2019-02-22T05:15:57.745Z,99190.94
2019-02-22T05:17:06.279Z,99182.41
2019-02-22T05:18:16.600Z,99186.24
2019-02-22T05:19:25.429Z,99184.41
2019-02-22T05:20:34.232Z,99195.78
2019-02-22T05:21:42.753Z,99210.95
2019-02-22T05:23:02.989Z,99218.07
2019-02-22T05:24:00.993Z,99221.18
2019-02-22T05:25:09.881Z,99215.52
2019-02-22T05:26:18.569Z,99231.45
2019-02-22T05:27:27.027Z,99229.66
2019-02-22T05:28:35.701Z,99238.75
2019-02-22T05:29:43.904Z,99243.50
2019-02-22T05:30:52.061Z,99235.01
2019-02-22T05:32:00.410Z,99248.99
2019-02-22T05:33:08.510Z,99253.73
2019-02-22T05:34:16.826Z,99261.03
2019-02-22T05:35:25.557Z,99262.61
2019-02-22T05:36:33.718Z,99258.70
2019-02-22T05:37:42.369Z,99269.98
2019-02-22T05:38:50.618Z,99266.50
2019-02-22T05:40:00.326Z,99273.14
2019-02-22T05:41:09.289Z,99282.84
2019-02-22T05:42:22.862Z,99286.33
2019-02-22T05:43:27.453Z,99294.80
2019-02-22T05:44:35.967Z,99298.54
2019-02-22T05:45:45.407Z,99315.90
2019-02-22T05:47:00.364Z,99311.40
2019-02-22T05:48:03.524Z,99310.25
2019-02-22T05:49:11.813Z,99314.51
2019-02-22T05:50:20.496Z,99328.07
2019-02-22T05:51:28.698Z,99335.20
2019-02-22T05:52:37.103Z,99341.80
2019-02-22T05:53:47.107Z,99343.55
2019-02-22T05:54:55.366Z,99345.42
2019-02-22T05:56:03.911Z,99355.11
2019-02-22T05:57:14.190Z,99359.92
2019-02-22T05:58:22.080Z,99369.52
2019-02-22T05:59:30.887Z,99387.42
2019-02-22T06:00:39.584Z,99379.42
2019-02-22T06:01:48.224Z,99383.61
2019-02-22T06:02:56.528Z,99384.75
2019-02-22T06:04:05.588Z,99393.63
2019-02-22T06:05:13.625Z,99394.41
2019-02-22T06:06:21.707Z,99404.18
2019-02-22T06:07:30.440Z,99389.84
2019-02-22T06:08:38.477Z,99412.13
2019-02-22T06:09:47.076Z,99417.67
2019-02-22T06:10:55.341Z,99422.28
2019-02-22T06:12:03.525Z,99425.84
2019-02-22T06:13:11.685Z,99425.07
2019-02-22T06:14:20.128Z,99433.75
2019-02-22T06:15:28.338Z,99430.84
2019-02-22T06:16:38.585Z,99441.53
2019-02-22T06:17:47.378Z,99449.16
2019-02-22T06:18:55.540Z,99458.25
2019-02-22T06:20:09.154Z,99452.55
2019-02-22T06:21:17.444Z,99467.27
2019-02-22T06:22:29.530Z,99472.00
2019-02-22T06:23:35.981Z,99466.22
2019-02-22T06:24:44.486Z,99474.13
2019-02-22T06:25:52.724Z,99477.61
2019-02-22T06:27:01.418Z,99485.70
2019-02-22T06:28:10.017Z,99493.98
2019-02-22T06:29:18.493Z,99498.01
2019-02-22T06:30:26.827Z,99504.05
2019-02-22T06:31:35.568Z,99512.63
2019-02-22T06:32:44.240Z,99509.72
2019-02-22T06:33:52.660Z,99508.13
2019-02-22T06:35:01.267Z,99526.31
2019-02-22T06:36:10.093Z,99522.08
2019-02-22T06:37:18.543Z,99523.94
2019-02-22T06:38:27.000Z,99540.26
2019-02-22T06:39:35.605Z,99537.23
2019-02-22T06:40:44.202Z,99543.35
2019-02-22T06:41:52.565Z,99550.32
2019-02-22T06:43:00.856Z,99540.83
2019-02-22T06:44:11.915Z,99547.62
2019-02-22T06:45:19.902Z,99544.00
2019-02-22T06:46:28.175Z,99556.83
2019-02-22T06:47:36.895Z,99567.81
2019-02-22T06:48:45.366Z,99559.25
2019-02-22T06:49:53.560Z,99575.81
2019-02-22T06:51:02.456Z,99578.94
2019-02-22T06:52:10.986Z,99574.10
2019-02-22T06:53:19.750Z,99572.72
2019-02-22T06:54:28.008Z,99575.74
2019-02-22T06:55:36.818Z,99585.48
2019-02-22T06:56:45.022Z,99595.14
2019-02-22T06:57:53.299Z,99598.63
2019-02-22T06:59:02.122Z,99619.28
2019-02-22T07:00:13.562Z,99601.97
2019-02-22T07:01:21.861Z,99617.06
2019-02-22T07:02:30.601Z,99620.02
2019-02-22T07:03:39.073Z,99626.87
2019-02-22T07:04:47.594Z,99621.77
2019-02-22T07:05:55.919Z,99624.08
2019-02-22T07:07:04.523Z,99634.59
2019-02-22T07:08:14.454Z,99637.62
2019-02-22T07:09:22.839Z,99650.70
2019-02-22T07:10:33.053Z,99644.59
2019-02-22T07:11:55.620Z,99661.35
2019-02-22T07:13:05.252Z,99677.06
2019-02-22T07:14:13.480Z,99681.01
2019-02-22T07:15:22.031Z,99691.53
2019-02-22T07:16:30.244Z,99698.83
2019-02-22T07:17:38.766Z,99705.34
2019-02-22T07:18:47.087Z,99699.69
2019-02-22T07:19:55.395Z,99697.05
2019-02-22T07:21:03.965Z,99710.20
2019-02-22T07:22:13.475Z,99698.89
2019-02-22T07:23:22.139Z,99714.34
2019-02-22T07:24:30.687Z,99711.74
2019-02-22T07:25:38.981Z,99734.98
2019-02-22T07:26:47.038Z,99734.09
2019-02-22T07:27:55.735Z,99742.91
2019-02-22T07:29:04.166Z,99749.87
2019-02-22T07:30:13.520Z,99756.97
2019-02-22T07:31:21.645Z,99767.62
2019-02-22T07:32:30.418Z,99759.36
2019-02-22T07:33:38.549Z,99769.94
2019-02-22T07:34:47.078Z,99774.28
2019-02-22T07:35:56.197Z,99784.77
2019-02-22T07:37:04.825Z,99775.91
2019-02-22T07:38:12.981Z,99784.65
2019-02-22T07:39:27.740Z,99792.94
2019-02-22T07:40:31.333Z,99784.98
2019-02-22T07:41:39.519Z,99798.50
2019-02-22T07:42:48.104Z,99799.27
2019-02-22T07:43:56.538Z,99797.55
2019-02-22T07:45:07.627Z,99805.73
2019-02-22T07:46:16.406Z,99799.23
2019-02-22T07:47:24.702Z,99811.82
2019-02-22T07:48:33.644Z,99821.82
2019-02-22T07:49:42.119Z,99813.16
2019-02-22T07:50:57.926Z,99814.20
2019-02-22T07:52:00.516Z,99818.60
2019-02-22T07:53:09.212Z,99827.68
2019-02-22T07:54:17.511Z,99835.48
2019-02-22T07:55:25.967Z,99827.59
2019-02-22T07:56:34.566Z,99819.25
2019-02-22T07:57:43.296Z,99840.68
2019-02-22T07:58:52.102Z,99842.08
2019-02-22T08:00:00.869Z,99844.77
2019-02-22T08:01:10.650Z,99849.56
2019-02-22T08:02:19.595Z,99854.73
2019-02-22T08:03:28.328Z,99863.82
2019-02-22T08:04:36.776Z,99868.56
2019-02-22T08:05:45.048Z,99864.13
2019-02-22T08:06:53.740Z,99873.81
2019-02-22T08:08:02.292Z,99873.14
2019-02-22T08:09:11.833Z,99881.94
2019-02-22T08:10:20.440Z,99877.54
2019-02-22T08:11:29.071Z,99893.59
2019-02-22T08:12:37.833Z,99895.36
2019-02-22T08:13:46.355Z,99906.80
2019-02-22T08:14:55.175Z,99909.97
2019-02-22T08:16:03.758Z,99903.17
2019-02-22T08:17:14.620Z,99907.97
2019-02-22T08:18:23.854Z,99908.83
2019-02-22T08:19:32.237Z,99903.91
2019-02-22T08:20:41.790Z,99914.80
2019-02-22T08:21:50.289Z,99914.34
2019-02-22T08:22:58.326Z,99924.27
2019-02-22T08:24:06.485Z,99916.59
2019-02-22T08:25:14.718Z,99906.25
2019-02-22T08:26:22.993Z,99920.30
2019-02-22T08:27:31.486Z,99933.03
2019-02-22T08:28:39.669Z,99939.95
2019-02-22T08:29:47.866Z,99935.61
2019-02-22T08:30:56.018Z,99940.81
2019-02-22T08:32:04.069Z,99945.61
2019-02-22T08:33:12.065Z,99940.70
2019-02-22T08:34:21.065Z,99947.19
2019-02-22T08:35:29.388Z,99949.64
2019-02-22T08:36:38.450Z,99953.52
2019-02-22T08:37:47.125Z,99949.05
2019-02-22T08:38:57.405Z,99970.86
2019-02-22T08:40:08.826Z,99960.74
2019-02-22T08:41:17.178Z,99971.15
2019-02-22T08:42:25.688Z,99964.52
2019-02-22T08:43:34.557Z,99972.46
2019-02-22T08:44:42.907Z,99975.48
2019-02-22T08:45:51.717Z,99970.55
2019-02-22T08:47:00.221Z,99967.35
2019-02-22T08:48:08.427Z,99972.41
2019-02-22T08:49:17.235Z,99977.59
2019-02-22T08:50:25.539Z,99975.44
2019-02-22T08:51:34.436Z,99978.45
2019-02-22T08:52:43.049Z,99989.77
2019-02-22T08:53:51.420Z,99988.80
2019-02-22T08:55:00.249Z,99999.69
2019-02-22T08:56:08.578Z,99995.75
2019-02-22T08:57:16.660Z,100004.89
2019-02-22T08:58:24.988Z,100013.19
2019-02-22T08:59:33.693Z,100015.41
2019-02-22T09:00:42.660Z,100026.02
2019-02-22T09:01:50.911Z,100029.73
2019-02-22T09:02:59.711Z,100017.63
2019-02-22T09:04:07.940Z,100014.20
2019-02-22T09:05:16.410Z,100019.06
2019-02-22T09:06:24.667Z,100027.37
2019-02-22T09:07:33.088Z,100039.63
2019-02-22T09:08:41.790Z,100034.38
2019-02-22T09:09:50.153Z,100047.14
2019-02-22T09:11:00.781Z,100047.25
2019-02-22T09:12:08.080Z,100043.90
2019-02-22T09:13:16.573Z,100043.84
2019-02-22T09:14:24.735Z,100047.33
2019-02-22T09:15:34.371Z,100053.45
2019-02-22T09:16:42.720Z,100045.48
2019-02-22T09:17:50.728Z,100044.11
2019-02-22T09:18:59.226Z,100056.75
2019-02-22T09:20:11.158Z,100061.77
2019-02-22T09:21:19.495Z,100057.05
2019-02-22T09:22:28.138Z,100056.31
2019-02-22T09:23:36.529Z,100062.20
2019-02-22T09:24:44.987Z,100066.14
2019-02-22T09:25:53.948Z,100073.19
2019-02-22T09:27:02.623Z,100077.91
2019-02-22T09:28:10.786Z,100073.00
2019-02-22T09:29:19.183Z,100080.81
2019-02-22T09:30:27.528Z,100077.67
2019-02-22T09:31:35.781Z,100080.20
2019-02-22T09:32:44.407Z,100081.51
2019-02-22T09:33:52.869Z,100083.61
2019-02-22T09:35:01.722Z,100076.91
2019-02-22T09:36:10.538Z,100087.59
2019-02-22T09:37:19.025Z,100090.45
2019-02-22T09:38:27.329Z,100089.33
2019-02-22T09:39:36.281Z,100088.63
2019-02-22T09:40:44.793Z,100086.66
2019-02-22T09:41:53.160Z,100091.20
2019-02-22T09:43:02.808Z,100090.95
2019-02-22T09:44:11.821Z,100097.34
2019-02-22T09:45:20.002Z,100092.41
2019-02-22T09:46:28.376Z,100098.91
2019-02-22T09:47:37.008Z,100103.26
2019-02-22T09:48:45.419Z,100107.34
2019-02-22T09:49:54.023Z,100109.72
2019-02-22T09:51:02.271Z,100116.47
2019-02-22T09:52:11.076Z,100118.24
2019-02-22T09:53:19.286Z,100116.27
2019-02-22T09:54:27.621Z,100118.44
2019-02-22T09:55:36.448Z,100132.08
2019-02-22T09:56:44.592Z,100137.34
2019-02-22T09:57:53.049Z,100138.58
2019-02-22T09:59:01.409Z,100139.83
2019-02-22T10:00:13.813Z,100133.20
2019-02-22T10:01:22.722Z,100139.32
2019-02-22T10:02:30.787Z,100142.00
2019-02-22T10:03:39.578Z,100136.74
2019-02-22T10:04:54.905Z,100139.38
2019-02-22T10:05:58.945Z,100151.73
2019-02-22T10:07:07.468Z,100149.44
2019-02-22T10:08:16.320Z,100140.75
2019-02-22T10:09:24.687Z,100146.81
2019-02-22T10:10:33.178Z,100160.43
2019-02-22T10:11:41.535Z,100155.67
2019-02-22T10:12:49.768Z,100157.12
2019-02-22T10:14:06.240Z,100151.12
2019-02-22T10:15:10.479Z,100145.98
2019-02-22T10:16:19.401Z,100150.39
2019-02-22T10:17:27.926Z,100159.66
2019-02-22T10:18:36.607Z,100158.80
2019-02-22T10:19:45.109Z,100156.56
2019-02-22T10:20:53.685Z,100167.55
2019-02-22T10:22:01.882Z,100174.20
2019-02-22T10:23:10.552Z,100171.11
2019-02-22T10:24:19.568Z,100179.52
2019-02-22T10:25:27.690Z,100168.12
2019-02-22T10:26:36.018Z,100163.73
2019-02-22T10:27:44.683Z,100179.45
2019-02-22T10:28:53.262Z,100183.45
2019-02-22T10:30:02.156Z,100182.55
2019-02-22T10:31:11.121Z,100182.09
2019-02-22T10:32:19.936Z,100183.52
2019-02-22T10:33:36.643Z,100181.73
2019-02-22T10:34:40.395Z,100177.34
2019-02-22T10:35:48.923Z,100178.70
2019-02-22T10:36:57.432Z,100190.59
2019-02-22T10:38:06.004Z,100177.47
2019-02-22T10:39:14.532Z,100191.08
2019-02-22T10:40:23.272Z,100200.20
2019-02-22T10:41:31.978Z,100196.31
2019-02-22T10:42:41.094Z,100196.72
2019-02-22T10:43:49.276Z,100199.57
2019-02-22T10:44:57.777Z,100192.43
2019-02-22T10:46:06.409Z,100194.82
2019-02-22T10:47:14.867Z,100192.87
2019-02-22T10:48:23.121Z,100190.16
2019-02-22T10:49:31.324Z,100193.53
2019-02-22T10:50:40.362Z,100188.54
2019-02-22T10:51:49.160Z,100184.34
2019-02-22T10:53:02.266Z,100201.09
2019-02-22T10:54:08.058Z,100181.16
2019-02-22T10:55:16.302Z,100199.84
2019-02-22T10:56:24.720Z,100199.13
2019-02-22T10:57:33.801Z,100200.51
2019-02-22T10:58:42.972Z,100198.08
2019-02-22T10:59:51.615Z,100187.27
2019-02-22T11:01:00.662Z,100187.06
2019-02-22T11:02:09.600Z,100195.31
2019-02-22T11:03:18.091Z,100203.27
2019-02-22T11:04:26.720Z,100208.48
2019-02-22T11:05:34.997Z,100210.27
2019-02-22T11:06:44.215Z,100201.04
2019-02-22T11:07:52.997Z,100205.83
2019-02-22T11:09:01.642Z,100214.65
2019-02-22T11:10:13.247Z,100218.71
2019-02-22T11:11:21.650Z,100208.23
2019-02-22T11:12:30.453Z,100223.04
2019-02-22T11:13:39.058Z,100209.23
2019-02-22T11:14:47.604Z,100200.20
2019-02-22T11:15:56.246Z,100212.73
2019-02-22T11:17:05.620Z,100214.88
2019-02-22T11:18:14.364Z,100216.48
2019-02-22T11:19:22.354Z,100218.05
2019-02-22T11:20:31.013Z,100221.84
2019-02-22T11:21:40.191Z,100228.38
2019-02-22T11:22:49.255Z,100229.57
2019-02-22T11:23:57.402Z,100230.80
2019-02-22T11:25:08.485Z,100234.69
2019-02-22T11:26:17.082Z,100227.98
2019-02-22T11:27:25.999Z,100227.76
2019-02-22T11:28:34.759Z,100225.67
2019-02-22T11:29:43.771Z,100220.05
2019-02-22T11:30:52.590Z,100228.00
2019-02-22T11:32:00.992Z,100229.50
2019-02-22T11:33:11.192Z,100226.23
2019-02-22T11:34:19.842Z,100226.17
2019-02-22T11:35:28.529Z,100223.59
2019-02-22T11:36:37.071Z,100232.30
2019-02-22T11:37:45.834Z,100226.17
2019-02-22T11:38:54.173Z,100234.02
2019-02-22T11:40:02.475Z,100230.89
2019-02-22T11:41:10.900Z,100235.51
2019-02-22T11:42:19.283Z,100234.95
2019-02-22T11:43:27.983Z,100241.02
2019-02-22T11:44:40.239Z,100234.35
2019-02-22T11:45:46.578Z,100251.68
2019-02-22T11:46:54.754Z,100246.95
2019-02-22T11:48:09.112Z,100246.63
2019-02-22T11:49:12.900Z,100254.64
2019-02-22T11:50:21.272Z,100239.97
2019-02-22T11:51:29.879Z,100247.40
2019-02-22T11:52:38.664Z,100245.09
2019-02-22T11:53:47.280Z,100250.30
2019-02-22T11:54:55.696Z,100244.63
2019-02-22T11:56:04.125Z,100254.80
2019-02-22T11:57:12.732Z,100263.28
2019-02-22T11:58:21.837Z,100256.42
2019-02-22T11:59:30.057Z,100257.58
2019-02-22T12:00:38.459Z,100258.34
2019-02-22T12:01:47.176Z,100257.98
2019-02-22T12:02:55.679Z,100245.77
2019-02-22T12:04:04.583Z,100258.52
2019-02-22T12:05:13.202Z,100269.47
2019-02-22T12:06:21.627Z,100270.79
2019-02-22T12:07:29.968Z,100272.97
2019-02-22T12:08:38.788Z,100267.75
2019-02-22T12:09:47.046Z,100270.79
2019-02-22T12:10:55.186Z,100276.36
2019-02-22T12:12:03.615Z,100280.95
2019-02-22T12:13:12.485Z,100278.24
2019-02-22T12:14:21.365Z,100280.66
2019-02-22T12:15:31.539Z,100286.33
2019-02-22T12:16:39.603Z,100286.20
2019-02-22T12:17:48.374Z,100285.96
2019-02-22T12:18:56.617Z,100289.22
2019-02-22T12:20:06.552Z,100286.45
2019-02-22T12:21:15.269Z,100288.52
2019-02-22T12:22:24.138Z,100289.92
2019-02-22T12:23:32.404Z,100288.76
2019-02-22T12:24:40.576Z,100294.52
2019-02-22T12:25:49.296Z,100295.09
2019-02-22T12:26:57.678Z,100301.09
2019-02-22T12:28:05.996Z,100299.20
2019-02-22T12:29:14.317Z,100308.89
2019-02-22T12:30:22.541Z,100309.67
2019-02-22T12:31:30.515Z,100309.41
2019-02-22T12:32:39.535Z,100302.41
2019-02-22T12:33:48.179Z,100309.41
2019-02-22T12:34:56.515Z,100311.66
2019-02-22T12:36:05.037Z,100303.38
2019-02-22T12:37:13.285Z,100304.91
2019-02-22T12:38:21.627Z,100316.73
2019-02-22T12:39:30.140Z,100310.45
2019-02-22T12:40:38.571Z,100313.77
2019-02-22T12:41:47.066Z,100309.17
2019-02-22T12:42:55.840Z,100309.42
2019-02-22T12:44:04.004Z,100317.64
2019-02-22T12:45:15.576Z,100315.39
2019-02-22T12:46:24.165Z,100308.25
2019-02-22T12:47:32.550Z,100320.44
2019-02-22T12:48:40.905Z,100307.81
2019-02-22T12:49:49.373Z,100316.39
2019-02-22T12:50:57.749Z,100312.78
2019-02-22T12:52:06.068Z,100321.50
2019-02-22T12:53:14.503Z,100323.11
2019-02-22T12:54:23.844Z,100330.36
2019-02-22T12:55:32.130Z,100334.65
2019-02-22T12:56:57.875Z,100337.55
2019-02-22T12:57:50.811Z,100326.84
2019-02-22T12:58:59.167Z,100332.39
2019-02-22T13:00:14.243Z,100330.67
2019-02-22T13:01:24.548Z,100329.42
2019-02-22T13:02:32.383Z,100337.67
2019-02-22T13:03:41.040Z,100334.06
2019-02-22T13:04:49.064Z,100344.97
2019-02-22T13:05:58.391Z,100350.58
2019-02-22T13:07:07.373Z,100343.57
2019-02-22T13:08:15.884Z,100351.19
2019-02-22T13:09:35.792Z,100363.56
2019-02-22T13:10:34.385Z,100360.06
2019-02-22T13:11:42.526Z,100364.42
2019-02-22T13:12:50.959Z,100361.63
2019-02-22T13:14:00.005Z,100354.90
2019-02-22T13:15:14.412Z,100357.41
2019-02-22T13:16:22.225Z,100361.37
2019-02-22T13:17:31.297Z,100369.23
2019-02-22T13:18:39.871Z,100379.25